Time;durP1;ratioP1;P1;durP2;ratioP2;P2;SDS_P1;SDS_P2;PMS_P1;PMS_P2;Temp;Humidity;BMP_temperature;BMP_pressure;BME280_temperature;BME280_humidity;BME280_pressure;Samples;Min_cycle;Max_cycle;Signal;HPM_P1;HPM_P2
2024/04/17 00:02:12;;;;;;;3.47;3.17;;;;;;;8.23;100.00;100643.94;6288935;27;20267;-68
2024/04/17 00:05:31;;;;;;;3.57;3.20;;;;;;;8.24;100.00;100645.66;6269125;27;20263;-68
2024/04/17 00:08:54;;;;;;;2.60;2.40;;;;;;;8.23;100.00;100647.50;6277379;27;20275;-68
2024/04/17 00:12:19;;;;;;;2.87;2.63;;;;;;;8.16;100.00;100642.72;6271213;27;20634;-69
2024/04/17 00:15:39;;;;;;;4.23;3.27;;;;;;;8.03;100.00;100654.47;6276800;27;20763;-68
2024/04/17 00:19:01;;;;;;;2.73;2.53;;;;;;;8.06;100.00;100648.03;6275442;27;20796;-69
2024/04/17 00:22:24;;;;;;;3.57;2.60;;;;;;;8.09;100.00;100648.59;6267723;27;20619;-68
2024/04/17 00:25:46;;;;;;;4.23;3.03;;;;;;;8.00;100.00;100644.03;6266336;27;22512;-69
2024/04/17 00:29:11;;;;;;;2.43;2.23;;;;;;;8.06;100.00;100654.25;6250204;27;20284;-68
2024/04/17 00:32:31;;;;;;;4.27;2.30;;;;;;;7.98;100.00;100654.03;6237364;27;20620;-68
2024/04/17 00:35:54;;;;;;;3.10;2.63;;;;;;;8.04;100.00;100655.34;6234333;27;20269;-68
2024/04/17 00:39:19;;;;;;;3.33;2.60;;;;;;;8.00;100.00;100649.38;6257747;27;20280;-68
2024/04/17 00:42:41;;;;;;;3.87;2.57;;;;;;;7.90;100.00;100645.75;6252980;27;20263;-68
2024/04/17 00:46:08;;;;;;;3.87;3.20;;;;;;;7.88;100.00;100650.38;6269855;27;20287;-69
2024/04/17 00:49:31;;;;;;;6.40;3.37;;;;;;;7.90;100.00;100644.88;6243592;27;20280;-68
2024/04/17 00:52:55;;;;;;;3.03;2.83;;;;;;;7.83;100.00;100649.03;6231152;27;20264;-67
2024/04/17 00:56:14;;;;;;;3.40;3.10;;;;;;;7.81;100.00;100646.50;6230791;27;20861;-68
2024/04/17 00:59:37;;;;;;;3.27;2.97;;;;;;;7.93;100.00;100648.16;6242004;27;20284;-68
2024/04/17 01:03:02;;;;;;;4.10;3.00;;;;;;;8.05;100.00;100647.16;6240124;27;20271;-67
2024/04/17 01:06:24;;;;;;;13.03;3.27;;;;;;;8.06;100.00;100643.50;6234684;27;20405;-67
2024/04/17 01:09:47;;;;;;;5.87;2.90;;;;;;;7.97;100.00;100640.72;6249141;27;20276;-68
2024/04/17 01:13:09;;;;;;;3.13;2.70;;;;;;;7.83;100.00;100638.31;6268792;27;20607;-68
2024/04/17 01:16:31;;;;;;;6.20;3.17;;;;;;;7.85;100.00;100636.34;6223185;27;20276;-67
2024/04/17 01:19:57;;;;;;;3.63;3.13;;;;;;;7.94;100.00;100639.16;6240951;27;20477;-68
2024/04/17 01:23:19;;;;;;;3.03;2.70;;;;;;;8.01;100.00;100637.66;6240520;27;20291;-68
2024/04/17 01:26:41;;;;;;;2.47;2.27;;;;;;;7.73;100.00;100638.22;6239006;27;21586;-68
2024/04/17 01:30:05;;;;;;;3.27;3.00;;;;;;;7.81;100.00;100640.25;6242568;27;20316;-68
2024/04/17 01:33:25;;;;;;;2.27;2.07;;;;;;;7.86;100.00;100641.59;6244487;27;20984;-68
2024/04/17 01:36:48;;;;;;;3.10;2.80;;;;;;;7.95;100.00;100646.22;6236350;27;20275;-68
2024/04/17 01:40:11;;;;;;;3.33;3.03;;;;;;;7.94;100.00;100643.66;6236830;27;21443;-68
2024/04/17 01:43:36;;;;;;;2.70;2.50;;;;;;;7.87;100.00;100643.31;6247814;27;20274;-68
2024/04/17 01:46:59;;;;;;;4.17;3.67;;;;;;;7.89;100.00;100657.44;6271754;27;20274;-69
2024/04/17 01:50:27;;;;;;;4.30;3.17;;;;;;;7.84;100.00;100662.31;6275938;27;20267;-68
2024/04/17 01:53:49;;;;;;;5.23;2.80;;;;;;;7.77;100.00;100654.91;6281248;27;20275;-69
2024/04/17 01:57:09;;;;;;;2.67;2.47;;;;;;;7.59;100.00;100659.06;6274546;27;20276;-68
2024/04/17 02:00:34;;;;;;;2.93;2.57;;;;;;;7.52;100.00;100657.84;6273755;27;20476;-68
2024/04/17 02:03:54;;;;;;;4.50;2.37;;;;;;;7.44;100.00;100661.16;6278602;27;20299;-68
2024/04/17 02:07:16;;;;;;;3.37;3.17;;;;;;;7.38;100.00;100660.78;6272416;27;20283;-68
2024/04/17 02:10:38;;;;;;;3.77;2.40;;;;;;;7.24;100.00;100657.34;6269222;27;20577;-67
2024/04/17 02:14:01;;;;;;;5.10;3.40;;;;;;;7.26;100.00;100667.94;6275750;27;20291;-68
2024/04/17 02:17:24;;;;;;;2.97;2.67;;;;;;;7.19;100.00;100662.22;6262824;27;20275;-68
2024/04/17 02:20:46;;;;;;;4.63;3.27;;;;;;;7.13;100.00;100667.22;6269570;27;20271;-68
2024/04/17 02:24:06;;;;;;;6.53;3.40;;;;;;;7.16;100.00;100664.28;6278605;27;20283;-68
2024/04/17 02:27:29;;;;;;;3.43;3.10;;;;;;;7.13;100.00;100657.31;6240343;27;20268;-68
2024/04/17 02:30:51;;;;;;;3.50;2.93;;;;;;;7.15;100.00;100658.06;6231454;27;20264;-68
2024/04/17 02:34:14;;;;;;;3.10;2.87;;;;;;;7.11;100.00;100666.47;6240889;27;20275;-68
2024/04/17 02:37:36;;;;;;;3.50;3.20;;;;;;;7.15;100.00;100659.91;6228465;27;20273;-69
2024/04/17 02:40:56;;;;;;;4.90;4.00;;;;;;;7.12;100.00;100660.13;6239774;27;20271;-69
2024/04/17 02:44:18;;;;;;;4.67;3.17;;;;;;;7.08;100.00;100661.34;6254533;27;20269;-68
2024/04/17 02:47:40;;;;;;;3.20;3.00;;;;;;;6.98;100.00;100657.69;6254064;27;20311;-68
2024/04/17 02:51:05;;;;;;;3.57;3.27;;;;;;;7.01;100.00;100668.13;6252266;27;20312;-69
2024/04/17 02:54:25;;;;;;;3.03;2.73;;;;;;;7.00;100.00;100664.63;6237346;27;20279;-69
2024/04/17 02:57:48;;;;;;;3.53;2.67;;;;;;;7.02;100.00;100675.22;6237956;27;20276;-68
2024/04/17 03:01:12;;;;;;;3.67;3.23;;;;;;;7.06;100.00;100668.66;6259565;27;22609;-68
2024/04/17 03:04:34;;;;;;;3.20;2.90;;;;;;;6.81;100.00;100677.72;6251999;27;20267;-68
2024/04/17 03:07:59;;;;;;;3.67;3.33;;;;;;;6.80;100.00;100677.84;6241473;27;20267;-68
2024/04/17 03:11:20;;;;;;;3.97;3.67;;;;;;;6.81;100.00;100674.19;6248361;27;20284;-68
2024/04/17 03:14:42;;;;;;;3.60;3.30;;;;;;;6.73;100.00;100676.59;6243184;27;20322;-68
2024/04/17 03:18:04;;;;;;;3.47;2.70;;;;;;;6.65;100.00;100684.38;6221886;27;20276;-68
2024/04/17 03:21:28;;;;;;;4.43;4.03;;;;;;;6.67;100.00;100682.44;6225008;27;20340;-68
2024/04/17 03:24:53;;;;;;;3.23;2.93;;;;;;;6.61;100.00;100681.09;6250594;27;20288;-68
2024/04/17 03:28:13;;;;;;;3.27;2.97;;;;;;;6.60;100.00;100683.84;6237635;27;20600;-67
2024/04/17 03:31:35;;;;;;;3.07;2.77;;;;;;;6.58;100.00;100686.66;6232415;27;20493;-67
2024/04/17 03:34:58;;;;;;;3.50;3.20;;;;;;;6.48;100.00;100688.31;6241426;27;20272;-67
2024/04/17 03:38:20;;;;;;;4.17;3.77;;;;;;;6.64;100.00;100688.88;6243073;27;20287;-68
2024/04/17 03:41:45;;;;;;;4.40;3.43;;;;;;;6.63;100.00;100691.66;6232010;27;20630;-68
2024/04/17 03:45:10;;;;;;;5.27;3.00;;;;;;;6.70;100.00;100692.91;6244145;28;20633;-67
2024/04/17 03:48:32;;;;;;;3.40;2.53;;;;;;;6.63;100.00;100695.22;6273602;27;20343;-67
2024/04/17 03:51:54;;;;;;;4.60;4.20;;;;;;;6.60;100.00;100690.06;6274305;27;20748;-68
2024/04/17 03:55:14;;;;;;;3.33;2.60;;;;;;;6.59;100.00;100695.56;6271053;27;20291;-67
2024/04/17 03:58:40;;;;;;;3.47;3.07;;;;;;;6.65;100.00;100698.63;6243634;27;20301;-67
2024/04/17 04:02:03;;;;;;;3.70;2.47;;;;;;;6.55;100.00;100702.09;6220982;27;23732;-68
2024/04/17 04:05:26;;;;;;;3.67;3.37;;;;;;;6.47;100.00;100699.97;6272444;27;20259;-68
2024/04/17 04:08:46;;;;;;;4.27;3.30;;;;;;;6.60;100.00;100698.09;6273705;27;20271;-68
2024/04/17 04:12:09;;;;;;;4.40;3.20;;;;;;;6.63;100.00;100705.06;6261006;27;20335;-68
2024/04/17 04:15:33;;;;;;;4.13;3.47;;;;;;;6.67;100.00;100703.84;6266295;27;20263;-69
2024/04/17 04:18:56;;;;;;;4.97;4.20;;;;;;;6.65;100.00;100711.16;6268969;27;20263;-68
2024/04/17 04:22:15;;;;;;;4.80;3.27;;;;;;;6.59;100.00;100711.63;6266322;27;20283;-69
2024/04/17 04:25:38;;;;;;;3.33;3.03;;;;;;;6.56;100.00;100709.16;6299893;27;20630;-69
2024/04/17 04:29:00;;;;;;;3.57;2.30;;;;;;;6.58;100.00;100718.78;6280166;27;20274;-69
2024/04/17 04:32:25;;;;;;;4.13;3.00;;;;;;;6.64;100.00;100714.78;6259316;27;20268;-70
2024/04/17 04:35:48;;;;;;;11.03;8.77;;;;;;;6.58;100.00;100721.47;6279009;27;20513;-68
2024/04/17 04:39:10;;;;;;;12.77;11.13;;;;;;;6.59;100.00;100725.88;6275644;27;21516;-68
2024/04/17 04:42:32;;;;;;;4.50;4.07;;;;;;;6.53;100.00;100720.94;6264849;27;20272;-68
2024/04/17 04:45:52;;;;;;;2.67;2.47;;;;;;;6.58;100.00;100724.16;6283309;27;20268;-68
2024/04/17 04:49:17;;;;;;;2.80;2.60;;;;;;;6.59;100.00;100730.38;6274737;27;20283;-68
2024/04/17 04:52:39;;;;;;;3.00;2.73;;;;;;;6.62;100.00;100730.13;6276921;27;22485;-68
2024/04/17 04:56:04;;;;;;;4.07;3.20;;;;;;;6.66;100.00;100732.47;6272153;27;20263;-69
2024/04/17 04:59:24;;;;;;;3.30;3.10;;;;;;;6.73;100.00;100736.41;6276094;27;20450;-69
2024/04/17 05:02:47;;;;;;;2.70;2.50;;;;;;;6.69;100.00;100742.09;6260975;27;20267;-68
2024/04/17 05:06:12;;;;;;;3.07;2.87;;;;;;;6.97;100.00;100747.06;6268492;27;20272;-68
2024/04/17 05:09:32;;;;;;;3.47;2.10;;;;;;;6.92;100.00;100751.94;6269448;27;20291;-68
2024/04/17 05:12:54;;;;;;;2.63;2.43;;;;;;;7.11;100.00;100749.56;6265302;27;20275;-68
2024/04/17 05:16:17;;;;;;;2.67;2.00;;;;;;;7.23;100.00;100740.59;6264995;27;20279;-69
2024/04/17 05:19:39;;;;;;;5.90;2.80;;;;;;;7.20;100.00;100744.34;6241442;27;20284;-69
2024/04/17 05:23:01;;;;;;;4.63;2.90;;;;;;;7.35;100.00;100753.03;6236012;27;20308;-69
2024/04/17 05:26:24;;;;;;;2.13;2.03;;;;;;;7.41;100.00;100755.22;6220914;27;20268;-68
2024/04/17 05:29:44;;;;;;;2.20;2.00;;;;;;;7.62;100.00;100744.66;6238663;27;20286;-66
2024/04/17 05:33:07;;;;;;;3.00;2.80;;;;;;;7.83;100.00;100753.69;6224385;27;21022;-68
2024/04/17 05:36:29;;;;;;;3.57;2.30;;;;;;;7.74;100.00;100749.91;6233406;28;20328;-68
2024/04/17 05:39:54;;;;;;;2.10;1.90;;;;;;;7.79;100.00;100753.09;6242121;27;21132;-68
2024/04/17 05:43:15;;;;;;;2.13;1.97;;;;;;;7.66;100.00;100751.47;6247987;27;21190;-67
2024/04/17 05:46:38;;;;;;;2.80;2.20;;;;;;;7.83;100.00;100759.06;6235854;27;20272;-68
2024/04/17 05:50:00;;;;;;;2.47;1.90;;;;;;;7.93;100.00;100754.66;6272414;27;20271;-68
2024/04/17 05:53:21;;;;;;;2.87;1.73;;;;;;;8.04;100.00;100754.66;6279704;27;20279;-68
2024/04/17 05:56:45;;;;;;;2.40;1.90;;;;;;;8.13;100.00;100751.25;6273672;27;20292;-69
2024/04/17 06:00:09;;;;;;;4.60;2.70;;;;;;;8.26;100.00;100753.84;6276655;27;20275;-68
2024/04/17 06:03:32;;;;;;;3.90;2.13;;;;;;;8.31;100.00;100756.97;6270958;27;20286;-71
2024/04/17 06:06:55;;;;;;;2.37;2.13;;;;;;;8.33;100.00;100757.72;6292779;27;20638;-68
2024/04/17 06:10:17;;;;;;;1.80;1.70;;;;;;;8.42;100.00;100754.28;6269599;27;23222;-69
2024/04/17 06:13:42;;;;;;;2.83;2.63;;;;;;;8.68;100.00;100752.97;6275216;27;20335;-70
2024/04/17 06:17:05;;;;;;;2.73;2.53;;;;;;;8.93;100.00;100755.31;6265745;27;20263;-67
2024/04/17 06:20:25;;;;;;;2.90;2.10;;;;;;;8.88;100.00;100757.56;6270233;27;20271;-70
2024/04/17 06:23:48;;;;;;;2.57;2.37;;;;;;;8.83;100.00;100752.56;6278952;27;20295;-70
2024/04/17 06:27:08;;;;;;;3.37;2.97;;;;;;;8.96;100.00;100756.91;6267277;27;20665;-69
2024/04/17 06:30:34;;;;;;;2.47;2.33;;;;;;;8.92;100.00;100761.69;6266335;27;20271;-69
2024/04/17 06:33:54;;;;;;;5.47;4.87;;;;;;;8.89;100.00;100763.81;6279247;27;20274;-68
2024/04/17 06:37:16;;;;;;;2.30;2.10;;;;;;;9.09;100.00;100777.28;6278991;27;20283;-69
2024/04/17 06:40:41;;;;;;;2.77;2.17;;;;;;;9.03;100.00;100772.41;6269771;27;20267;-69
2024/04/17 06:44:03;;;;;;;2.50;2.03;;;;;;;9.60;100.00;100771.94;6289740;27;20998;-75
2024/04/17 06:47:28;;;;;;;2.10;1.90;;;;;;;10.18;100.00;100775.84;6275602;27;20296;-74
2024/04/17 06:50:51;;;;;;;4.93;2.73;;;;;;;10.12;100.00;100774.53;6263271;27;20287;-74
2024/04/17 06:54:10;;;;;;;2.67;2.47;;;;;;;10.88;100.00;100778.41;6314770;27;20309;-76
2024/04/17 06:57:33;;;;;;;2.17;1.97;;;;;;;10.02;100.00;100783.50;6268224;27;20870;-77
2024/04/17 07:00:55;;;;;;;2.10;1.83;;;;;;;9.80;100.00;100787.25;6246475;27;20267;-69
2024/04/17 07:04:18;;;;;;;3.27;2.10;;;;;;;9.47;100.00;100780.22;6266438;27;20687;-69
2024/04/17 07:07:40;;;;;;;2.83;2.20;;;;;;;9.65;100.00;100780.50;6255302;27;20275;-69
2024/04/17 07:11:01;;;;;;;3.13;1.50;;;;;;;9.85;100.00;100787.69;6238267;27;20903;-69
2024/04/17 07:14:23;;;;;;;3.07;1.93;;;;;;;9.94;100.00;100792.28;6236525;27;20280;-67
2024/04/17 07:17:45;;;;;;;1.77;1.67;;;;;;;10.14;100.00;100787.84;6263886;27;20343;-70
2024/04/17 07:21:10;;;;;;;3.73;2.07;;;;;;;10.31;100.00;100790.75;6259045;27;20271;-69
2024/04/17 07:24:30;;;;;;;2.50;2.00;;;;;;;10.50;100.00;100789.97;6232333;27;20272;-69
2024/04/17 07:27:52;;;;;;;1.87;1.73;;;;;;;10.21;100.00;100792.56;6234086;28;20272;-69
2024/04/17 07:31:12;;;;;;;2.07;1.87;;;;;;;10.48;100.00;100793.78;6238141;27;20275;-68
2024/04/17 07:34:34;;;;;;;2.00;1.80;;;;;;;10.51;100.00;100790.81;6268635;27;20651;-67
2024/04/17 07:37:59;;;;;;;3.87;2.03;;;;;;;10.67;100.00;100793.84;6277021;27;20271;-70
2024/04/17 07:41:19;;;;;;;2.00;1.87;;;;;;;10.74;100.00;100797.69;6261764;27;20277;-69
2024/04/17 07:44:41;;;;;;;1.67;1.53;;;;;;;10.40;100.00;100802.56;6275128;27;21951;-69
2024/04/17 07:48:01;;;;;;;2.10;1.90;;;;;;;10.72;100.00;100805.06;6253889;27;20310;-69
2024/04/17 07:51:23;;;;;;;1.50;1.40;;;;;;;10.71;100.00;100804.22;6215131;27;20426;-69
2024/04/17 07:54:48;;;;;;;2.13;1.83;;;;;;;10.28;100.00;100803.66;6253528;27;20492;-69
2024/04/17 07:58:08;;;;;;;1.70;1.60;;;;;;;10.52;100.00;100800.59;6239565;27;20265;-69
2024/04/17 08:01:31;;;;;;;2.97;1.70;;;;;;;10.65;100.00;100806.59;6243562;28;20284;-69
2024/04/17 08:04:51;;;;;;;1.20;1.10;;;;;;;10.90;100.00;100801.53;6245330;27;20660;-69
2024/04/17 08:08:13;;;;;;;4.17;1.80;;;;;;;10.73;100.00;100809.44;6232936;27;20307;-69
2024/04/17 08:11:36;;;;;;;2.10;1.70;;;;;;;11.09;100.00;100798.88;6265940;27;20279;-69
2024/04/17 08:14:58;;;;;;;1.43;1.33;;;;;;;11.06;100.00;100806.38;6295211;27;20279;-70
2024/04/17 08:18:18;;;;;;;3.07;2.43;;;;;;;11.13;100.00;100794.91;6272623;27;20275;-70
2024/04/17 08:21:41;;;;;;;2.83;1.80;;;;;;;11.19;100.00;100799.72;6268554;27;20263;-69
2024/04/17 08:25:04;;;;;;;1.70;1.60;;;;;;;11.27;100.00;100797.16;6278754;27;20278;-69
2024/04/17 08:28:29;;;;;;;0.93;0.93;;;;;;;11.01;100.00;100796.00;6282287;27;20279;-69
2024/04/17 08:31:51;;;;;;;1.17;0.70;;;;;;;11.23;100.00;100794.88;6266902;27;20275;-69
2024/04/17 08:35:11;;;;;;;1.33;0.90;;;;;;;11.44;100.00;100797.41;6235515;27;21259;-69
2024/04/17 08:38:33;;;;;;;2.70;1.67;;;;;;;11.58;100.00;100796.97;6279029;27;20303;-69
2024/04/17 08:41:58;;;;;;;1.43;0.80;;;;;;;11.38;99.68;100795.31;6258780;27;20340;-69
2024/04/17 08:45:33;;;;;;;1.37;1.27;;;;;;;11.34;99.43;100799.28;6253116;27;20263;-68
2024/04/17 08:48:57;;;;;;;1.00;0.90;;;;;;;11.63;94.18;100805.50;6237793;27;20287;-69
2024/04/17 08:52:23;;;;;;;0.80;0.80;;;;;;;11.71;91.89;100811.06;6270723;27;20278;-69
2024/04/17 08:55:44;;;;;;;1.07;0.97;;;;;;;11.69;90.32;100802.25;6238237;27;20280;-70
2024/04/17 08:59:06;;;;;;;4.30;2.43;;;;;;;11.85;90.91;100805.19;6246081;27;20324;-70
2024/04/17 09:02:32;;;;;;;1.47;1.37;;;;;;;12.22;89.38;100797.97;6247455;27;20276;-69
2024/04/17 09:05:56;;;;;;;1.57;1.00;;;;;;;12.19;86.60;100797.41;6259633;27;20275;-69
2024/04/17 09:09:20;;;;;;;1.13;1.13;;;;;;;12.29;88.38;100799.06;6277820;27;20271;-69
2024/04/17 09:12:44;;;;;;;1.80;0.90;;;;;;;12.23;81.96;100804.22;6270422;27;20259;-70
2024/04/17 09:16:07;;;;;;;9.70;3.40;;;;;;;12.41;84.21;100797.88;6267821;27;20275;-70
2024/04/17 09:19:32;;;;;;;2.63;1.70;;;;;;;12.48;87.92;100800.81;6242290;27;20284;-69
2024/04/17 09:22:55;;;;;;;1.63;1.53;;;;;;;12.18;83.46;100798.44;6217428;27;20917;-69
2024/04/17 09:26:16;;;;;;;1.30;1.20;;;;;;;12.27;80.83;100803.78;6230779;27;20284;-68
2024/04/17 09:29:39;;;;;;;1.00;1.00;;;;;;;12.66;82.25;100793.63;6281459;27;20653;-69
2024/04/17 09:32:59;;;;;;;1.83;1.57;;;;;;;12.60;79.33;100800.47;6262125;27;20263;-69
2024/04/17 09:36:25;;;;;;;1.67;1.13;;;;;;;12.73;80.06;100787.44;6274067;27;20339;-70
2024/04/17 09:39:45;;;;;;;1.67;1.13;;;;;;;12.48;75.64;100798.13;6286643;27;20287;-69
2024/04/17 09:43:08;;;;;;;1.23;1.10;;;;;;;12.84;75.80;100794.50;6277880;27;20271;-69
2024/04/17 09:46:31;;;;;;;1.13;1.03;;;;;;;12.98;72.40;100801.22;6265639;27;20319;-69
2024/04/17 09:49:59;;;;;;;1.70;1.10;;;;;;;12.17;70.61;100794.88;6281627;27;20273;-69
2024/04/17 09:53:24;;;;;;;2.57;1.87;;;;;;;12.91;73.17;100790.19;6282498;27;20332;-69
2024/04/17 09:56:49;;;;;;;7.53;5.37;;;;;;;13.83;76.16;100788.78;6274523;27;20274;-69
2024/04/17 10:00:11;;;;;;;2.67;1.60;;;;;;;14.28;72.22;100789.47;6286814;27;20327;-70
2024/04/17 10:03:35;;;;;;;1.63;1.53;;;;;;;14.06;71.55;100789.13;6259062;27;20306;-68
2024/04/17 10:06:58;;;;;;;1.83;1.73;;;;;;;13.77;70.55;100788.63;6232436;27;20273;-68
2024/04/17 10:10:21;;;;;;;2.10;0.93;;;;;;;13.96;69.31;100788.38;6233160;27;20264;-70
2024/04/17 10:13:44;;;;;;;1.30;1.20;;;;;;;14.03;71.34;100786.72;6274726;27;20591;-69
2024/04/17 10:17:05;;;;;;;1.23;1.13;;;;;;;14.81;71.58;100785.59;6266422;27;20275;-69
2024/04/17 10:20:29;;;;;;;3.43;1.70;;;;;;;15.39;72.38;100786.34;6253459;27;20289;-68
2024/04/17 10:23:59;;;;;;;2.27;1.50;;;;;;;15.41;67.07;100786.19;6281268;27;20734;-69
2024/04/17 10:27:24;;;;;;;4.27;1.70;;;;;;;14.69;68.62;100786.88;6264073;27;20289;-71
2024/04/17 10:30:44;;;;;;;1.80;1.67;;;;;;;13.91;73.10;100788.88;6268019;27;20271;-68
2024/04/17 10:34:07;;;;;;;2.50;1.83;;;;;;;14.20;74.73;100783.09;6282535;27;20268;-68
2024/04/17 10:37:30;;;;;;;1.87;1.30;;;;;;;15.06;74.90;100784.63;6268941;27;20266;-70
2024/04/17 10:40:53;;;;;;;1.23;1.13;;;;;;;14.47;70.96;100782.94;6270639;27;20342;-68
2024/04/17 10:44:21;;;;;;;1.20;1.10;;;;;;;13.95;65.26;100786.69;6301002;27;20362;-69
2024/04/17 10:47:45;;;;;;;2.60;1.17;;;;;;;13.70;63.56;100779.41;6274365;27;20266;-68
2024/04/17 10:51:05;;;;;;;1.33;1.23;;;;;;;13.63;66.50;100788.16;6272183;27;20282;-68
2024/04/17 10:54:28;;;;;;;1.10;1.03;;;;;;;13.73;66.05;100785.34;6279519;27;20506;-68
2024/04/17 10:57:51;;;;;;;2.00;1.20;;;;;;;14.87;65.10;100779.50;6265446;27;20267;-68
2024/04/17 11:01:16;;;;;;;1.23;0.80;;;;;;;16.05;63.41;100783.44;6234738;27;20280;-68
2024/04/17 11:04:37;;;;;;;1.73;0.80;;;;;;;16.83;60.47;100776.19;6237103;27;20268;-67
2024/04/17 11:07:59;;;;;;;1.67;1.03;;;;;;;15.71;56.18;100775.50;6232616;27;20830;-67
2024/04/17 11:11:22;;;;;;;2.03;1.10;;;;;;;16.53;57.17;100766.13;6241559;27;20298;-67
2024/04/17 11:14:44;;;;;;;1.03;0.80;;;;;;;15.34;51.99;100777.00;6258193;27;20279;-69
2024/04/17 11:18:10;;;;;;;1.73;1.20;;;;;;;14.22;54.48;100762.09;6264778;27;20287;-69
2024/04/17 11:21:30;;;;;;;1.43;0.97;;;;;;;13.74;58.39;100773.50;6255256;27;20271;-70
2024/04/17 11:24:57;;;;;;;1.97;1.77;;;;;;;13.77;64.05;100775.06;6275097;27;20484;-69
2024/04/17 11:28:20;;;;;;;1.13;1.07;;;;;;;13.95;67.23;100775.84;6276916;27;20271;-65
2024/04/17 11:31:42;;;;;;;1.63;1.23;;;;;;;14.36;66.18;100770.50;6229639;27;20264;-66
2024/04/17 11:35:15;;;;;;;2.13;1.33;;;;;;;14.69;63.88;100773.31;6275503;27;20264;-68
2024/04/17 11:38:38;;;;;;;2.23;1.37;;;;;;;14.46;60.14;100769.53;6283111;27;20270;-69
2024/04/17 11:42:01;;;;;;;2.60;1.37;;;;;;;13.83;57.63;100771.72;6262925;27;20279;-67
2024/04/17 11:45:21;;;;;;;1.60;1.13;;;;;;;14.40;62.13;100768.31;6274442;27;20275;-68
2024/04/17 11:48:43;;;;;;;1.33;1.00;;;;;;;14.24;61.90;100760.94;6284968;27;20299;-69
2024/04/17 11:52:08;;;;;;;1.93;0.90;;;;;;;13.87;61.88;100767.66;6281455;27;20456;-68
2024/04/17 11:55:31;;;;;;;1.70;1.13;;;;;;;14.26;64.03;100772.47;6272124;27;20618;-68
2024/04/17 11:58:53;;;;;;;0.93;0.93;;;;;;;14.26;61.73;100772.47;6282485;27;20331;-69
2024/04/17 12:02:13;;;;;;;3.63;1.40;;;;;;;13.78;59.32;100774.03;6260866;27;20279;-70
2024/04/17 12:05:36;;;;;;;1.83;1.20;;;;;;;13.76;59.57;100782.34;6274097;27;20577;-68
2024/04/17 12:09:01;;;;;;;3.17;1.10;;;;;;;13.68;62.21;100774.16;6294052;27;20263;-72
2024/04/17 12:12:24;;;;;;;3.03;1.40;;;;;;;13.81;62.43;100779.16;6277109;27;20279;-69
2024/04/17 12:15:44;;;;;;;1.10;1.00;;;;;;;13.13;76.23;100787.06;6261124;27;20303;-72
2024/04/17 12:19:06;;;;;;;1.40;1.30;;;;;;;12.49;97.57;100786.31;6297130;27;20905;-70
2024/04/17 12:22:26;;;;;;;1.10;1.00;;;;;;;12.40;100.00;100782.66;6259193;27;20275;-69
2024/04/17 12:29:30;;;;;;;1.90;1.30;;;;;;;12.48;100.00;100798.13;6281521;27;20267;-68
2024/04/17 12:32:52;;;;;;;3.97;1.90;;;;;;;12.46;100.00;100790.16;6270905;27;20267;-70
2024/04/17 12:36:15;;;;;;;1.87;1.10;;;;;;;12.31;100.00;100799.78;6257911;27;20743;-68
2024/04/17 12:39:37;;;;;;;3.47;2.07;;;;;;;12.69;100.00;100804.13;6276172;27;20275;-70
2024/04/17 12:43:02;;;;;;;2.83;1.20;;;;;;;13.58;100.00;100806.75;6273311;27;20395;-69
2024/04/17 12:46:24;;;;;;;2.77;2.00;;;;;;;16.66;99.55;100805.38;6273236;27;20278;-71
2024/04/17 12:49:46;;;;;;;2.23;1.43;;;;;;;17.78;85.20;100799.31;6275927;27;20783;-68
2024/04/17 12:53:09;;;;;;;3.50;1.67;;;;;;;19.02;73.90;100795.69;6271486;27;20280;-68
2024/04/17 12:56:32;;;;;;;2.77;1.23;;;;;;;20.15;66.77;100797.38;6259504;27;20275;-70
2024/04/17 12:59:57;;;;;;;1.90;1.13;;;;;;;20.48;62.80;100803.13;6281935;27;20350;-69
2024/04/17 13:03:19;;;;;;;10.50;2.05;;;;;;;20.64;61.79;100800.03;6276236;27;20279;-68
2024/04/17 13:06:39;;;;;;;2.17;1.63;;;;;;;20.94;58.51;100803.34;6270600;27;20259;-70
2024/04/17 13:10:02;;;;;;;5.50;2.10;;;;;;;20.96;54.53;100785.63;6239593;27;20276;-70
2024/04/17 13:13:24;;;;;;;1.27;1.17;;;;;;;20.43;56.44;100792.75;6236838;27;20280;-68
2024/04/17 13:16:50;;;;;;;2.80;1.10;;;;;;;19.58;55.70;100794.84;6235691;27;20288;-69
2024/04/17 13:20:10;;;;;;;1.30;0.98;;;;;;;18.14;69.40;100795.75;6228783;27;20278;-67
2024/04/17 13:23:33;;;;;;;1.13;1.00;;;;;;;20.86;63.10;100793.38;6275525;27;20263;-67
2024/04/17 13:26:52;;;;;;;2.90;1.27;;;;;;;23.02;57.14;100782.38;6274998;27;20279;-70
2024/04/17 13:30:15;;;;;;;1.42;1.00;;;;;;;22.39;50.99;100791.47;6281643;27;20371;-70
2024/04/17 13:33:38;;;;;;;1.02;0.85;;;;;;;22.73;48.23;100782.94;6275537;27;22375;-71
2024/04/17 13:37:00;;;;;;;1.83;1.20;;;;;;;19.98;55.42;100793.28;6281312;27;20263;-68
2024/04/17 13:40:23;;;;;;;1.15;0.98;;;;;;;22.05;52.59;100785.19;6281062;27;20283;-67
2024/04/17 13:43:46;;;;;;;1.52;1.13;;;;;;;21.21;52.62;100785.94;6258926;27;21069;-69
2024/04/17 13:47:09;;;;;;;3.30;1.38;;;;;;;18.71;55.20;100793.19;6278518;27;20315;-68
2024/04/17 13:50:31;;;;;;;5.70;1.65;;;;;;;18.01;70.11;100794.66;6272565;27;20264;-70
2024/04/17 13:53:54;;;;;;;1.87;1.10;;;;;;;16.61;71.77;100785.13;6284286;27;20472;-70
2024/04/17 13:57:14;;;;;;;3.30;1.30;;;;;;;16.37;82.61;100794.22;6249427;27;20304;-69
2024/04/17 14:00:39;;;;;;;1.20;1.10;;;;;;;15.31;80.13;100796.38;6274584;27;20633;-70
2024/04/17 14:04:01;;;;;;;9.90;8.90;;;;;;;16.34;79.99;100785.53;6294254;27;20280;-70
2024/04/17 14:07:24;;;;;;;3.00;2.47;;;;;;;18.87;67.70;100790.25;6279222;27;20271;-67
2024/04/17 14:10:46;;;;;;;1.57;0.90;;;;;;;16.16;68.61;100779.50;6268753;27;20369;-69
2024/04/17 14:14:10;;;;;;;1.53;1.00;;;;;;;15.60;73.00;100788.59;6273674;27;20311;-69
2024/04/17 14:17:30;;;;;;;10.50;1.67;;;;;;;17.33;65.44;100781.97;6268233;27;20316;-70
2024/04/17 14:20:52;;;;;;;3.00;1.80;;;;;;;16.44;72.77;100781.59;6272894;27;20286;-70
2024/04/17 14:24:17;;;;;;;2.40;1.20;;;;;;;17.55;71.31;100780.28;6278559;27;20764;-69
2024/04/17 14:27:37;;;;;;;2.70;1.90;;;;;;;17.46;69.41;100779.47;6271651;27;20275;-68
2024/04/17 14:31:00;;;;;;;1.20;0.97;;;;;;;17.14;74.33;100784.31;6269083;27;20267;-69
2024/04/17 14:34:23;;;;;;;3.53;1.50;;;;;;;17.44;70.10;100781.53;6283849;27;20306;-69
2024/04/17 14:37:43;;;;;;;1.58;1.10;;;;;;;18.06;66.29;100784.06;6274040;27;20283;-70
2024/04/17 14:41:09;;;;;;;1.40;1.27;;;;;;;17.27;62.53;100790.84;6255683;27;20272;-71
2024/04/17 14:44:31;;;;;;;1.20;0.93;;;;;;;16.80;68.38;100787.41;6253848;27;20268;-70
2024/04/17 14:47:53;;;;;;;0.97;0.83;;;;;;;16.38;66.39;100792.31;6250992;27;20325;-69
2024/04/17 14:51:15;;;;;;;2.33;1.10;;;;;;;15.80;72.84;100790.78;6244616;27;20316;-71
2024/04/17 14:54:38;;;;;;;1.23;1.13;;;;;;;15.50;77.89;100796.91;6241414;27;20279;-71
2024/04/17 14:58:00;;;;;;;3.57;1.60;;;;;;;14.47;76.56;100798.34;6241355;27;20283;-70
2024/04/17 15:01:23;;;;;;;1.63;1.10;;;;;;;14.27;79.92;100793.13;6240364;27;20296;-70
2024/04/17 15:04:46;;;;;;;1.27;1.10;;;;;;;14.41;84.22;100792.53;6249020;27;20332;-68
2024/04/17 15:08:05;;;;;;;1.07;0.80;;;;;;;14.05;77.12;100799.13;6242089;27;20280;-70
2024/04/17 15:11:28;;;;;;;1.10;0.90;;;;;;;13.41;84.72;100799.47;6241208;27;20271;-70
2024/04/17 15:14:50;;;;;;;4.00;1.60;;;;;;;13.66;91.19;100800.56;6229350;27;22890;-69
2024/04/17 15:18:13;;;;;;;2.17;1.17;;;;;;;13.54;93.19;100799.94;6250590;27;20283;-70
2024/04/17 15:21:32;;;;;;;1.07;0.97;;;;;;;13.62;94.77;100799.16;6267116;27;20315;-69
2024/04/17 15:24:55;;;;;;;2.27;1.33;;;;;;;13.64;95.42;100795.28;6287999;27;20347;-70
2024/04/17 15:28:17;;;;;;;1.80;1.17;;;;;;;13.60;96.63;100793.88;6277590;27;22230;-70
2024/04/17 15:31:42;;;;;;;1.60;1.50;;;;;;;13.11;97.81;100810.72;6274637;27;20327;-70
2024/04/17 15:35:05;;;;;;;2.27;1.47;;;;;;;12.79;100.00;100810.31;6292150;27;20879;-70
2024/04/17 15:38:28;;;;;;;7.40;1.70;;;;;;;13.54;100.00;100808.06;6290794;27;20271;-70
2024/04/17 15:41:51;;;;;;;2.53;1.87;;;;;;;12.93;100.00;100808.97;6283619;27;20278;-69
2024/04/17 15:45:10;;;;;;;1.87;1.53;;;;;;;12.65;100.00;100822.53;6283830;27;20263;-69